Terminal Aerodrome Forecast
Issued by NWS

Home | Current Version | Previous Version | Text Only | Print | Product List | Glossary On
Versions: 1 2 3 4 5 6 7 8 9 10 11 12 13
000
FTUS42 KTBW 230923 AAA
TAFPIE
TAF AMD
KPIE 230923Z 2309/2406 VRB05KT P6SM FEW025 SCT070
     FM231400 07009G15KT P6SM SCT020 SCT100
     FM231900 08011G19KT P6SM VCSH SCT025 OVC040
     FM240200 08012G17KT P6SM SCT020=

USA.gov is the U.S. government's official web portal to all federal, state and local government web resources and services.